<?xml version="1.0" encoding="UTF-8" standalone="no" ?>
<gpx xmlns="http://www.topografix.com/GPX/1/1" xmlns:xsi="http://www.w3.org/2001/XMLSchema-instance" xsi:schemaLocation="http://www.topografix.com/GPX/1/1 http://www.topografix.com/GPX/1/1/gpx.xsd" version="1.1" creator="VisuGPX - https://www.visugpx.com">
  <metadata>
    <name>Recologne les Rioz</name>
    <desc><![CDATA[Randonnée en boucle : Recologne - Villlers-Bouton - Les Rosemières - Fondremand - Recologne]]></desc>
  </metadata>
  <trk>
    <name><![CDATA[26-AOU-18 16:27:47]]></name>
    <trkseg>
      <trkpt lat="47.47315" lon="5.98764">
        <ele>336</ele>
        <time>2018-08-26T09:10:21Z</time>
      </trkpt>
      <trkpt lat="47.47311" lon="5.98764">
        <ele>336</ele>
        <time>2018-08-26T09:10:51Z</time>
      </trkpt>
      <trkpt lat="47.4731" lon="5.98762">
        <ele>336</ele>
        <time>2018-08-26T09:11:21Z</time>
      </trkpt>
      <trkpt lat="47.47305" lon="5.98756">
        <ele>336</ele>
        <time>2018-08-26T09:11:51Z</time>
      </trkpt>
      <trkpt lat="47.47295" lon="5.98727">
        <ele>335</ele>
        <time>2018-08-26T09:12:21Z</time>
      </trkpt>
      <trkpt lat="47.47283" lon="5.98695">
        <ele>335</ele>
        <time>2018-08-26T09:12:51Z</time>
      </trkpt>
      <trkpt lat="47.47271" lon="5.98656">
        <ele>335</ele>
        <time>2018-08-26T09:13:21Z</time>
      </trkpt>
      <trkpt lat="47.47261" lon="5.98637">
        <ele>335</ele>
        <time>2018-08-26T09:13:51Z</time>
      </trkpt>
      <trkpt lat="47.47233" lon="5.9861">
        <ele>338</ele>
        <time>2018-08-26T09:14:21Z</time>
      </trkpt>
      <trkpt lat="47.47202" lon="5.98585">
        <ele>338</ele>
        <time>2018-08-26T09:14:51Z</time>
      </trkpt>
      <trkpt lat="47.47172" lon="5.98576">
        <ele>339</ele>
        <time>2018-08-26T09:15:21Z</time>
      </trkpt>
      <trkpt lat="47.47138" lon="5.98577">
        <ele>342</ele>
        <time>2018-08-26T09:15:51Z</time>
      </trkpt>
      <trkpt lat="47.47113" lon="5.9856">
        <ele>343</ele>
        <time>2018-08-26T09:16:21Z</time>
      </trkpt>
      <trkpt lat="47.47091" lon="5.98523">
        <ele>343</ele>
        <time>2018-08-26T09:16:51Z</time>
      </trkpt>
      <trkpt lat="47.47069" lon="5.9849">
        <ele>345</ele>
        <time>2018-08-26T09:17:21Z</time>
      </trkpt>
      <trkpt lat="47.47054" lon="5.9847">
        <ele>345</ele>
        <time>2018-08-26T09:17:51Z</time>
      </trkpt>
      <trkpt lat="47.4705" lon="5.98456">
        <ele>345</ele>
        <time>2018-08-26T09:18:21Z</time>
      </trkpt>
      <trkpt lat="47.4703" lon="5.98436">
        <ele>345</ele>
        <time>2018-08-26T09:18:51Z</time>
      </trkpt>
      <trkpt lat="47.47006" lon="5.98402">
        <ele>344</ele>
        <time>2018-08-26T09:19:21Z</time>
      </trkpt>
      <trkpt lat="47.46991" lon="5.98378">
        <ele>346</ele>
        <time>2018-08-26T09:19:51Z</time>
      </trkpt>
      <trkpt lat="47.46976" lon="5.98358">
        <ele>346</ele>
        <time>2018-08-26T09:20:21Z</time>
      </trkpt>
      <trkpt lat="47.46958" lon="5.98332">
        <ele>346</ele>
        <time>2018-08-26T09:20:51Z</time>
      </trkpt>
      <trkpt lat="47.46942" lon="5.98307">
        <ele>347</ele>
        <time>2018-08-26T09:21:21Z</time>
      </trkpt>
      <trkpt lat="47.46923" lon="5.98284">
        <ele>347</ele>
        <time>2018-08-26T09:21:51Z</time>
      </trkpt>
      <trkpt lat="47.46896" lon="5.98247">
        <ele>350</ele>
        <time>2018-08-26T09:22:21Z</time>
      </trkpt>
      <trkpt lat="47.46872" lon="5.98212">
        <ele>351</ele>
        <time>2018-08-26T09:22:51Z</time>
      </trkpt>
      <trkpt lat="47.46847" lon="5.98176">
        <ele>352</ele>
        <time>2018-08-26T09:23:21Z</time>
      </trkpt>
      <trkpt lat="47.46826" lon="5.98147">
        <ele>354</ele>
        <time>2018-08-26T09:23:51Z</time>
      </trkpt>
      <trkpt lat="47.468" lon="5.98111">
        <ele>355</ele>
        <time>2018-08-26T09:24:21Z</time>
      </trkpt>
      <trkpt lat="47.46775" lon="5.98074">
        <ele>355</ele>
        <time>2018-08-26T09:24:51Z</time>
      </trkpt>
      <trkpt lat="47.46748" lon="5.98035">
        <ele>356</ele>
        <time>2018-08-26T09:25:21Z</time>
      </trkpt>
      <trkpt lat="47.46721" lon="5.98007">
        <ele>356</ele>
        <time>2018-08-26T09:25:51Z</time>
      </trkpt>
      <trkpt lat="47.46683" lon="5.97976">
        <ele>354</ele>
        <time>2018-08-26T09:26:21Z</time>
      </trkpt>
      <trkpt lat="47.46647" lon="5.97951">
        <ele>355</ele>
        <time>2018-08-26T09:26:51Z</time>
      </trkpt>
      <trkpt lat="47.46612" lon="5.97931">
        <ele>356</ele>
        <time>2018-08-26T09:27:21Z</time>
      </trkpt>
      <trkpt lat="47.46578" lon="5.97908">
        <ele>357</ele>
        <time>2018-08-26T09:27:51Z</time>
      </trkpt>
      <trkpt lat="47.46554" lon="5.97867">
        <ele>357</ele>
        <time>2018-08-26T09:28:21Z</time>
      </trkpt>
      <trkpt lat="47.46531" lon="5.97831">
        <ele>358</ele>
        <time>2018-08-26T09:28:51Z</time>
      </trkpt>
      <trkpt lat="47.46511" lon="5.97796">
        <ele>358</ele>
        <time>2018-08-26T09:29:21Z</time>
      </trkpt>
      <trkpt lat="47.46482" lon="5.97766">
        <ele>355</ele>
        <time>2018-08-26T09:29:51Z</time>
      </trkpt>
      <trkpt lat="47.46458" lon="5.97745">
        <ele>354</ele>
        <time>2018-08-26T09:30:21Z</time>
      </trkpt>
      <trkpt lat="47.46447" lon="5.97739">
        <ele>354</ele>
        <time>2018-08-26T09:30:51Z</time>
      </trkpt>
      <trkpt lat="47.46449" lon="5.97741">
        <ele>354</ele>
        <time>2018-08-26T09:31:16Z</time>
      </trkpt>
      <trkpt lat="47.46443" lon="5.97735">
        <ele>354</ele>
        <time>2018-08-26T09:31:46Z</time>
      </trkpt>
      <trkpt lat="47.46412" lon="5.9771">
        <ele>352</ele>
        <time>2018-08-26T09:32:16Z</time>
      </trkpt>
      <trkpt lat="47.46378" lon="5.97684">
        <ele>352</ele>
        <time>2018-08-26T09:32:46Z</time>
      </trkpt>
      <trkpt lat="47.46343" lon="5.97653">
        <ele>353</ele>
        <time>2018-08-26T09:33:16Z</time>
      </trkpt>
      <trkpt lat="47.46319" lon="5.97637">
        <ele>351</ele>
        <time>2018-08-26T09:33:46Z</time>
      </trkpt>
      <trkpt lat="47.46286" lon="5.97609">
        <ele>350</ele>
        <time>2018-08-26T09:34:16Z</time>
      </trkpt>
      <trkpt lat="47.46253" lon="5.97584">
        <ele>349</ele>
        <time>2018-08-26T09:34:46Z</time>
      </trkpt>
      <trkpt lat="47.46223" lon="5.97559">
        <ele>349</ele>
        <time>2018-08-26T09:35:16Z</time>
      </trkpt>
      <trkpt lat="47.46233" lon="5.97511">
        <ele>349</ele>
        <time>2018-08-26T09:35:46Z</time>
      </trkpt>
      <trkpt lat="47.4625" lon="5.97472">
        <ele>351</ele>
        <time>2018-08-26T09:36:16Z</time>
      </trkpt>
      <trkpt lat="47.46237" lon="5.97431">
        <ele>352</ele>
        <time>2018-08-26T09:36:46Z</time>
      </trkpt>
      <trkpt lat="47.46222" lon="5.97394">
        <ele>354</ele>
        <time>2018-08-26T09:37:16Z</time>
      </trkpt>
      <trkpt lat="47.46203" lon="5.97351">
        <ele>355</ele>
        <time>2018-08-26T09:37:46Z</time>
      </trkpt>
      <trkpt lat="47.46172" lon="5.97325">
        <ele>356</ele>
        <time>2018-08-26T09:38:16Z</time>
      </trkpt>
      <trkpt lat="47.46137" lon="5.97309">
        <ele>357</ele>
        <time>2018-08-26T09:38:46Z</time>
      </trkpt>
      <trkpt lat="47.46104" lon="5.97285">
        <ele>358</ele>
        <time>2018-08-26T09:39:16Z</time>
      </trkpt>
      <trkpt lat="47.46071" lon="5.97263">
        <ele>362</ele>
        <time>2018-08-26T09:39:46Z</time>
      </trkpt>
      <trkpt lat="47.46052" lon="5.97245">
        <ele>366</ele>
        <time>2018-08-26T09:40:16Z</time>
      </trkpt>
      <trkpt lat="47.46027" lon="5.97232">
        <ele>367</ele>
        <time>2018-08-26T09:40:46Z</time>
      </trkpt>
      <trkpt lat="47.46007" lon="5.97218">
        <ele>368</ele>
        <time>2018-08-26T09:41:16Z</time>
      </trkpt>
      <trkpt lat="47.4598" lon="5.97198">
        <ele>373</ele>
        <time>2018-08-26T09:41:46Z</time>
      </trkpt>
      <trkpt lat="47.45954" lon="5.97179">
        <ele>374</ele>
        <time>2018-08-26T09:42:16Z</time>
      </trkpt>
      <trkpt lat="47.45925" lon="5.97163">
        <ele>377</ele>
        <time>2018-08-26T09:42:46Z</time>
      </trkpt>
      <trkpt lat="47.45899" lon="5.9714">
        <ele>378</ele>
        <time>2018-08-26T09:43:16Z</time>
      </trkpt>
      <trkpt lat="47.45874" lon="5.97125">
        <ele>378</ele>
        <time>2018-08-26T09:43:46Z</time>
      </trkpt>
      <trkpt lat="47.4586" lon="5.97114">
        <ele>378</ele>
        <time>2018-08-26T09:44:16Z</time>
      </trkpt>
      <trkpt lat="47.45858" lon="5.97112">
        <ele>378</ele>
        <time>2018-08-26T09:44:46Z</time>
      </trkpt>
      <trkpt lat="47.45855" lon="5.97109">
        <ele>378</ele>
        <time>2018-08-26T09:45:16Z</time>
      </trkpt>
      <trkpt lat="47.45859" lon="5.97109">
        <ele>378</ele>
        <time>2018-08-26T09:45:46Z</time>
      </trkpt>
      <trkpt lat="47.4586" lon="5.97114">
        <ele>378</ele>
        <time>2018-08-26T09:46:16Z</time>
      </trkpt>
      <trkpt lat="47.45856" lon="5.97114">
        <ele>378</ele>
        <time>2018-08-26T09:46:46Z</time>
      </trkpt>
      <trkpt lat="47.45851" lon="5.97099">
        <ele>378</ele>
        <time>2018-08-26T09:47:16Z</time>
      </trkpt>
      <trkpt lat="47.45832" lon="5.97092">
        <ele>377</ele>
        <time>2018-08-26T09:47:46Z</time>
      </trkpt>
      <trkpt lat="47.45807" lon="5.97065">
        <ele>377</ele>
        <time>2018-08-26T09:48:16Z</time>
      </trkpt>
      <trkpt lat="47.45786" lon="5.97038">
        <ele>376</ele>
        <time>2018-08-26T09:48:46Z</time>
      </trkpt>
      <trkpt lat="47.45759" lon="5.97004">
        <ele>375</ele>
        <time>2018-08-26T09:49:16Z</time>
      </trkpt>
      <trkpt lat="47.4573" lon="5.96971">
        <ele>376</ele>
        <time>2018-08-26T09:49:46Z</time>
      </trkpt>
      <trkpt lat="47.45699" lon="5.96945">
        <ele>377</ele>
        <time>2018-08-26T09:50:16Z</time>
      </trkpt>
      <trkpt lat="47.45678" lon="5.96953">
        <ele>377</ele>
        <time>2018-08-26T09:50:46Z</time>
      </trkpt>
      <trkpt lat="47.45644" lon="5.96946">
        <ele>375</ele>
        <time>2018-08-26T09:51:16Z</time>
      </trkpt>
      <trkpt lat="47.45618" lon="5.96944">
        <ele>373</ele>
        <time>2018-08-26T09:51:46Z</time>
      </trkpt>
      <trkpt lat="47.45608" lon="5.96975">
        <ele>372</ele>
        <time>2018-08-26T09:52:16Z</time>
      </trkpt>
      <trkpt lat="47.45594" lon="5.97012">
        <ele>368</ele>
        <time>2018-08-26T09:52:46Z</time>
      </trkpt>
      <trkpt lat="47.45576" lon="5.97052">
        <ele>368</ele>
        <time>2018-08-26T09:53:16Z</time>
      </trkpt>
      <trkpt lat="47.45542" lon="5.97072">
        <ele>368</ele>
        <time>2018-08-26T09:53:46Z</time>
      </trkpt>
      <trkpt lat="47.45509" lon="5.97088">
        <ele>368</ele>
        <time>2018-08-26T09:54:16Z</time>
      </trkpt>
      <trkpt lat="47.45474" lon="5.97099">
        <ele>366</ele>
        <time>2018-08-26T09:54:46Z</time>
      </trkpt>
      <trkpt lat="47.45444" lon="5.97119">
        <ele>365</ele>
        <time>2018-08-26T09:55:16Z</time>
      </trkpt>
      <trkpt lat="47.45415" lon="5.97133">
        <ele>361</ele>
        <time>2018-08-26T09:55:46Z</time>
      </trkpt>
      <trkpt lat="47.45377" lon="5.97142">
        <ele>360</ele>
        <time>2018-08-26T09:56:16Z</time>
      </trkpt>
      <trkpt lat="47.45343" lon="5.97132">
        <ele>359</ele>
        <time>2018-08-26T09:56:46Z</time>
      </trkpt>
      <trkpt lat="47.45305" lon="5.97124">
        <ele>353</ele>
        <time>2018-08-26T09:57:16Z</time>
      </trkpt>
      <trkpt lat="47.45273" lon="5.97117">
        <ele>352</ele>
        <time>2018-08-26T09:57:46Z</time>
      </trkpt>
      <trkpt lat="47.45233" lon="5.97119">
        <ele>349</ele>
        <time>2018-08-26T09:58:16Z</time>
      </trkpt>
      <trkpt lat="47.45213" lon="5.97164">
        <ele>348</ele>
        <time>2018-08-26T09:58:46Z</time>
      </trkpt>
      <trkpt lat="47.45209" lon="5.97214">
        <ele>350</ele>
        <time>2018-08-26T09:59:16Z</time>
      </trkpt>
      <trkpt lat="47.45213" lon="5.97263">
        <ele>354</ele>
        <time>2018-08-26T09:59:46Z</time>
      </trkpt>
      <trkpt lat="47.45212" lon="5.97315">
        <ele>355</ele>
        <time>2018-08-26T10:00:16Z</time>
      </trkpt>
      <trkpt lat="47.45206" lon="5.97362">
        <ele>358</ele>
        <time>2018-08-26T10:00:46Z</time>
      </trkpt>
      <trkpt lat="47.45203" lon="5.97364">
        <ele>358</ele>
        <time>2018-08-26T10:01:16Z</time>
      </trkpt>
      <trkpt lat="47.45206" lon="5.97396">
        <ele>358</ele>
        <time>2018-08-26T10:01:46Z</time>
      </trkpt>
      <trkpt lat="47.45211" lon="5.97441">
        <ele>355</ele>
        <time>2018-08-26T10:02:16Z</time>
      </trkpt>
      <trkpt lat="47.45218" lon="5.97487">
        <ele>354</ele>
        <time>2018-08-26T10:02:46Z</time>
      </trkpt>
      <trkpt lat="47.45235" lon="5.9753">
        <ele>349</ele>
        <time>2018-08-26T10:03:16Z</time>
      </trkpt>
      <trkpt lat="47.45248" lon="5.97572">
        <ele>348</ele>
        <time>2018-08-26T10:03:46Z</time>
      </trkpt>
      <trkpt lat="47.45243" lon="5.97623">
        <ele>342</ele>
        <time>2018-08-26T10:04:16Z</time>
      </trkpt>
      <trkpt lat="47.45226" lon="5.97667">
        <ele>338</ele>
        <time>2018-08-26T10:04:46Z</time>
      </trkpt>
      <trkpt lat="47.45209" lon="5.97705">
        <ele>336</ele>
        <time>2018-08-26T10:05:16Z</time>
      </trkpt>
      <trkpt lat="47.4518" lon="5.97716">
        <ele>334</ele>
        <time>2018-08-26T10:05:46Z</time>
      </trkpt>
      <trkpt lat="47.45154" lon="5.97713">
        <ele>329</ele>
        <time>2018-08-26T10:06:16Z</time>
      </trkpt>
      <trkpt lat="47.45165" lon="5.97744">
        <ele>329</ele>
        <time>2018-08-26T10:06:46Z</time>
      </trkpt>
      <trkpt lat="47.45178" lon="5.97786">
        <ele>332</ele>
        <time>2018-08-26T10:07:16Z</time>
      </trkpt>
      <trkpt lat="47.45171" lon="5.97839">
        <ele>330</ele>
        <time>2018-08-26T10:07:46Z</time>
      </trkpt>
      <trkpt lat="47.45155" lon="5.97847">
        <ele>327</ele>
        <time>2018-08-26T10:08:16Z</time>
      </trkpt>
      <trkpt lat="47.45141" lon="5.97841">
        <ele>326</ele>
        <time>2018-08-26T10:08:46Z</time>
      </trkpt>
      <trkpt lat="47.4511" lon="5.97848">
        <ele>325</ele>
        <time>2018-08-26T10:09:16Z</time>
      </trkpt>
      <trkpt lat="47.45082" lon="5.97868">
        <ele>321</ele>
        <time>2018-08-26T10:09:46Z</time>
      </trkpt>
      <trkpt lat="47.45055" lon="5.97839">
        <ele>322</ele>
        <time>2018-08-26T10:10:16Z</time>
      </trkpt>
      <trkpt lat="47.45032" lon="5.9782">
        <ele>322</ele>
        <time>2018-08-26T10:10:46Z</time>
      </trkpt>
      <trkpt lat="47.45047" lon="5.9783">
        <ele>322</ele>
        <time>2018-08-26T10:11:16Z</time>
      </trkpt>
      <trkpt lat="47.45048" lon="5.97833">
        <ele>321</ele>
        <time>2018-08-26T10:11:46Z</time>
      </trkpt>
      <trkpt lat="47.45063" lon="5.97847">
        <ele>322</ele>
        <time>2018-08-26T10:12:16Z</time>
      </trkpt>
      <trkpt lat="47.45086" lon="5.97892">
        <ele>323</ele>
        <time>2018-08-26T10:12:46Z</time>
      </trkpt>
      <trkpt lat="47.45094" lon="5.97943">
        <ele>322</ele>
        <time>2018-08-26T10:13:16Z</time>
      </trkpt>
      <trkpt lat="47.4508" lon="5.97991">
        <ele>317</ele>
        <time>2018-08-26T10:13:46Z</time>
      </trkpt>
      <trkpt lat="47.45062" lon="5.98031">
        <ele>316</ele>
        <time>2018-08-26T10:14:16Z</time>
      </trkpt>
      <trkpt lat="47.45034" lon="5.98059">
        <ele>315</ele>
        <time>2018-08-26T10:14:46Z</time>
      </trkpt>
      <trkpt lat="47.45005" lon="5.98087">
        <ele>314</ele>
        <time>2018-08-26T10:15:16Z</time>
      </trkpt>
      <trkpt lat="47.4498" lon="5.98123">
        <ele>313</ele>
        <time>2018-08-26T10:15:46Z</time>
      </trkpt>
      <trkpt lat="47.4496" lon="5.9817">
        <ele>313</ele>
        <time>2018-08-26T10:16:16Z</time>
      </trkpt>
      <trkpt lat="47.44945" lon="5.98219">
        <ele>313</ele>
        <time>2018-08-26T10:16:46Z</time>
      </trkpt>
      <trkpt lat="47.44927" lon="5.98266">
        <ele>314</ele>
        <time>2018-08-26T10:17:16Z</time>
      </trkpt>
      <trkpt lat="47.44918" lon="5.98315">
        <ele>315</ele>
        <time>2018-08-26T10:17:46Z</time>
      </trkpt>
      <trkpt lat="47.44906" lon="5.98367">
        <ele>316</ele>
        <time>2018-08-26T10:18:16Z</time>
      </trkpt>
      <trkpt lat="47.44889" lon="5.98413">
        <ele>316</ele>
        <time>2018-08-26T10:18:46Z</time>
      </trkpt>
      <trkpt lat="47.44862" lon="5.98451">
        <ele>315</ele>
        <time>2018-08-26T10:19:16Z</time>
      </trkpt>
      <trkpt lat="47.44834" lon="5.98481">
        <ele>315</ele>
        <time>2018-08-26T10:19:46Z</time>
      </trkpt>
      <trkpt lat="47.44807" lon="5.98518">
        <ele>317</ele>
        <time>2018-08-26T10:20:16Z</time>
      </trkpt>
      <trkpt lat="47.44789" lon="5.9854">
        <ele>318</ele>
        <time>2018-08-26T10:20:46Z</time>
      </trkpt>
      <trkpt lat="47.44775" lon="5.98571">
        <ele>319</ele>
        <time>2018-08-26T10:21:16Z</time>
      </trkpt>
      <trkpt lat="47.4476" lon="5.98602">
        <ele>323</ele>
        <time>2018-08-26T10:21:46Z</time>
      </trkpt>
      <trkpt lat="47.44746" lon="5.98626">
        <ele>328</ele>
        <time>2018-08-26T10:22:16Z</time>
      </trkpt>
      <trkpt lat="47.44752" lon="5.98619">
        <ele>325</ele>
        <time>2018-08-26T10:22:46Z</time>
      </trkpt>
      <trkpt lat="47.44753" lon="5.98618">
        <ele>325</ele>
        <time>2018-08-26T10:23:16Z</time>
      </trkpt>
      <trkpt lat="47.44744" lon="5.98659">
        <ele>331</ele>
        <time>2018-08-26T10:23:46Z</time>
      </trkpt>
      <trkpt lat="47.44734" lon="5.98708">
        <ele>338</ele>
        <time>2018-08-26T10:24:16Z</time>
      </trkpt>
      <trkpt lat="47.44731" lon="5.9876">
        <ele>343</ele>
        <time>2018-08-26T10:24:46Z</time>
      </trkpt>
      <trkpt lat="47.44722" lon="5.98812">
        <ele>343</ele>
        <time>2018-08-26T10:25:16Z</time>
      </trkpt>
      <trkpt lat="47.44694" lon="5.98847">
        <ele>338</ele>
        <time>2018-08-26T10:25:46Z</time>
      </trkpt>
      <trkpt lat="47.44668" lon="5.98873">
        <ele>336</ele>
        <time>2018-08-26T10:26:16Z</time>
      </trkpt>
      <trkpt lat="47.44635" lon="5.98911">
        <ele>329</ele>
        <time>2018-08-26T10:26:46Z</time>
      </trkpt>
      <trkpt lat="47.446" lon="5.98944">
        <ele>320</ele>
        <time>2018-08-26T10:27:16Z</time>
      </trkpt>
      <trkpt lat="47.44566" lon="5.98965">
        <ele>314</ele>
        <time>2018-08-26T10:27:46Z</time>
      </trkpt>
      <trkpt lat="47.44536" lon="5.98987">
        <ele>313</ele>
        <time>2018-08-26T10:28:16Z</time>
      </trkpt>
      <trkpt lat="47.44523" lon="5.99004">
        <ele>309</ele>
        <time>2018-08-26T10:28:46Z</time>
      </trkpt>
      <trkpt lat="47.44522" lon="5.98995">
        <ele>312</ele>
        <time>2018-08-26T10:29:16Z</time>
      </trkpt>
      <trkpt lat="47.44521" lon="5.9899">
        <ele>312</ele>
        <time>2018-08-26T10:29:46Z</time>
      </trkpt>
      <trkpt lat="47.44522" lon="5.98991">
        <ele>312</ele>
        <time>2018-08-26T10:30:16Z</time>
      </trkpt>
      <trkpt lat="47.44526" lon="5.98995">
        <ele>312</ele>
        <time>2018-08-26T10:30:25Z</time>
      </trkpt>
      <trkpt lat="47.44521" lon="5.99004">
        <ele>309</ele>
        <time>2018-08-26T11:18:37Z</time>
      </trkpt>
      <trkpt lat="47.44523" lon="5.99011">
        <ele>309</ele>
        <time>2018-08-26T11:19:07Z</time>
      </trkpt>
      <trkpt lat="47.44521" lon="5.9901">
        <ele>309</ele>
        <time>2018-08-26T11:19:37Z</time>
      </trkpt>
      <trkpt lat="47.44517" lon="5.99018">
        <ele>309</ele>
        <time>2018-08-26T11:20:07Z</time>
      </trkpt>
      <trkpt lat="47.44499" lon="5.99054">
        <ele>307</ele>
        <time>2018-08-26T11:20:37Z</time>
      </trkpt>
      <trkpt lat="47.44487" lon="5.99081">
        <ele>306</ele>
        <time>2018-08-26T11:21:07Z</time>
      </trkpt>
      <trkpt lat="47.44474" lon="5.99117">
        <ele>305</ele>
        <time>2018-08-26T11:21:37Z</time>
      </trkpt>
      <trkpt lat="47.44461" lon="5.99157">
        <ele>304</ele>
        <time>2018-08-26T11:22:07Z</time>
      </trkpt>
      <trkpt lat="47.4446" lon="5.99166">
        <ele>304</ele>
        <time>2018-08-26T11:22:37Z</time>
      </trkpt>
      <trkpt lat="47.44441" lon="5.99211">
        <ele>303</ele>
        <time>2018-08-26T11:23:07Z</time>
      </trkpt>
      <trkpt lat="47.44417" lon="5.99248">
        <ele>303</ele>
        <time>2018-08-26T11:23:37Z</time>
      </trkpt>
      <trkpt lat="47.44388" lon="5.99277">
        <ele>304</ele>
        <time>2018-08-26T11:24:07Z</time>
      </trkpt>
      <trkpt lat="47.44358" lon="5.99304">
        <ele>304</ele>
        <time>2018-08-26T11:24:37Z</time>
      </trkpt>
      <trkpt lat="47.44325" lon="5.9933">
        <ele>304</ele>
        <time>2018-08-26T11:25:07Z</time>
      </trkpt>
      <trkpt lat="47.44296" lon="5.99352">
        <ele>303</ele>
        <time>2018-08-26T11:25:37Z</time>
      </trkpt>
      <trkpt lat="47.44271" lon="5.99391">
        <ele>302</ele>
        <time>2018-08-26T11:26:07Z</time>
      </trkpt>
      <trkpt lat="47.44256" lon="5.99438">
        <ele>301</ele>
        <time>2018-08-26T11:26:37Z</time>
      </trkpt>
      <trkpt lat="47.44242" lon="5.99488">
        <ele>299</ele>
        <time>2018-08-26T11:27:07Z</time>
      </trkpt>
      <trkpt lat="47.44229" lon="5.99539">
        <ele>298</ele>
        <time>2018-08-26T11:27:37Z</time>
      </trkpt>
      <trkpt lat="47.44221" lon="5.99584">
        <ele>296</ele>
        <time>2018-08-26T11:28:07Z</time>
      </trkpt>
      <trkpt lat="47.44214" lon="5.99599">
        <ele>296</ele>
        <time>2018-08-26T11:28:37Z</time>
      </trkpt>
      <trkpt lat="47.44203" lon="5.99621">
        <ele>296</ele>
        <time>2018-08-26T11:29:07Z</time>
      </trkpt>
      <trkpt lat="47.44188" lon="5.99653">
        <ele>295</ele>
        <time>2018-08-26T11:29:37Z</time>
      </trkpt>
      <trkpt lat="47.44166" lon="5.9969">
        <ele>293</ele>
        <time>2018-08-26T11:30:07Z</time>
      </trkpt>
      <trkpt lat="47.44141" lon="5.99731">
        <ele>292</ele>
        <time>2018-08-26T11:30:37Z</time>
      </trkpt>
      <trkpt lat="47.44122" lon="5.99767">
        <ele>290</ele>
        <time>2018-08-26T11:31:07Z</time>
      </trkpt>
      <trkpt lat="47.4411" lon="5.99794">
        <ele>290</ele>
        <time>2018-08-26T11:31:37Z</time>
      </trkpt>
      <trkpt lat="47.44121" lon="5.99833">
        <ele>289</ele>
        <time>2018-08-26T11:32:07Z</time>
      </trkpt>
      <trkpt lat="47.44141" lon="5.99857">
        <ele>290</ele>
        <time>2018-08-26T11:32:37Z</time>
      </trkpt>
      <trkpt lat="47.44156" lon="5.99883">
        <ele>290</ele>
        <time>2018-08-26T11:33:07Z</time>
      </trkpt>
      <trkpt lat="47.44161" lon="5.99927">
        <ele>292</ele>
        <time>2018-08-26T11:33:37Z</time>
      </trkpt>
      <trkpt lat="47.44167" lon="5.99937">
        <ele>294</ele>
        <time>2018-08-26T11:34:07Z</time>
      </trkpt>
      <trkpt lat="47.44179" lon="5.99954">
        <ele>295</ele>
        <time>2018-08-26T11:34:37Z</time>
      </trkpt>
      <trkpt lat="47.442" lon="5.99972">
        <ele>297</ele>
        <time>2018-08-26T11:35:07Z</time>
      </trkpt>
      <trkpt lat="47.44225" lon="5.99995">
        <ele>298</ele>
        <time>2018-08-26T11:35:37Z</time>
      </trkpt>
      <trkpt lat="47.44252" lon="6.00008">
        <ele>302</ele>
        <time>2018-08-26T11:36:07Z</time>
      </trkpt>
      <trkpt lat="47.44256" lon="6.00024">
        <ele>304</ele>
        <time>2018-08-26T11:36:37Z</time>
      </trkpt>
      <trkpt lat="47.44279" lon="6.00024">
        <ele>305</ele>
        <time>2018-08-26T11:37:07Z</time>
      </trkpt>
      <trkpt lat="47.44311" lon="6.00029">
        <ele>305</ele>
        <time>2018-08-26T11:37:37Z</time>
      </trkpt>
      <trkpt lat="47.44347" lon="6.00051">
        <ele>308</ele>
        <time>2018-08-26T11:38:07Z</time>
      </trkpt>
      <trkpt lat="47.44367" lon="6.00075">
        <ele>309</ele>
        <time>2018-08-26T11:38:37Z</time>
      </trkpt>
      <trkpt lat="47.4439" lon="6.00088">
        <ele>314</ele>
        <time>2018-08-26T11:39:07Z</time>
      </trkpt>
      <trkpt lat="47.44419" lon="6.00112">
        <ele>318</ele>
        <time>2018-08-26T11:39:37Z</time>
      </trkpt>
      <trkpt lat="47.44444" lon="6.0014">
        <ele>320</ele>
        <time>2018-08-26T11:40:07Z</time>
      </trkpt>
      <trkpt lat="47.44465" lon="6.00175">
        <ele>325</ele>
        <time>2018-08-26T11:40:37Z</time>
      </trkpt>
      <trkpt lat="47.44482" lon="6.00213">
        <ele>326</ele>
        <time>2018-08-26T11:41:07Z</time>
      </trkpt>
      <trkpt lat="47.44511" lon="6.00234">
        <ele>331</ele>
        <time>2018-08-26T11:41:37Z</time>
      </trkpt>
      <trkpt lat="47.4454" lon="6.00264">
        <ele>335</ele>
        <time>2018-08-26T11:42:07Z</time>
      </trkpt>
      <trkpt lat="47.44572" lon="6.00288">
        <ele>336</ele>
        <time>2018-08-26T11:42:37Z</time>
      </trkpt>
      <trkpt lat="47.44595" lon="6.00321">
        <ele>340</ele>
        <time>2018-08-26T11:43:07Z</time>
      </trkpt>
      <trkpt lat="47.44626" lon="6.00342">
        <ele>344</ele>
        <time>2018-08-26T11:43:37Z</time>
      </trkpt>
      <trkpt lat="47.44651" lon="6.0038">
        <ele>345</ele>
        <time>2018-08-26T11:44:07Z</time>
      </trkpt>
      <trkpt lat="47.4468" lon="6.00414">
        <ele>347</ele>
        <time>2018-08-26T11:44:37Z</time>
      </trkpt>
      <trkpt lat="47.44691" lon="6.00445">
        <ele>349</ele>
        <time>2018-08-26T11:45:07Z</time>
      </trkpt>
      <trkpt lat="47.44716" lon="6.00479">
        <ele>350</ele>
        <time>2018-08-26T11:45:37Z</time>
      </trkpt>
      <trkpt lat="47.44747" lon="6.00505">
        <ele>351</ele>
        <time>2018-08-26T11:46:07Z</time>
      </trkpt>
      <trkpt lat="47.44779" lon="6.00529">
        <ele>352</ele>
        <time>2018-08-26T11:46:37Z</time>
      </trkpt>
      <trkpt lat="47.44802" lon="6.00559">
        <ele>352</ele>
        <time>2018-08-26T11:47:07Z</time>
      </trkpt>
      <trkpt lat="47.44836" lon="6.00597">
        <ele>354</ele>
        <time>2018-08-26T11:47:37Z</time>
      </trkpt>
      <trkpt lat="47.4487" lon="6.00635">
        <ele>356</ele>
        <time>2018-08-26T11:48:07Z</time>
      </trkpt>
      <trkpt lat="47.44889" lon="6.00672">
        <ele>357</ele>
        <time>2018-08-26T11:48:37Z</time>
      </trkpt>
      <trkpt lat="47.44911" lon="6.00694">
        <ele>358</ele>
        <time>2018-08-26T11:49:07Z</time>
      </trkpt>
      <trkpt lat="47.44952" lon="6.00707">
        <ele>360</ele>
        <time>2018-08-26T11:49:37Z</time>
      </trkpt>
      <trkpt lat="47.44982" lon="6.0072">
        <ele>361</ele>
        <time>2018-08-26T11:50:07Z</time>
      </trkpt>
      <trkpt lat="47.45" lon="6.0073">
        <ele>361</ele>
        <time>2018-08-26T11:50:37Z</time>
      </trkpt>
      <trkpt lat="47.45033" lon="6.0074">
        <ele>363</ele>
        <time>2018-08-26T11:51:07Z</time>
      </trkpt>
      <trkpt lat="47.45073" lon="6.00748">
        <ele>364</ele>
        <time>2018-08-26T11:51:37Z</time>
      </trkpt>
      <trkpt lat="47.45117" lon="6.00758">
        <ele>363</ele>
        <time>2018-08-26T11:52:07Z</time>
      </trkpt>
      <trkpt lat="47.4515" lon="6.0076">
        <ele>364</ele>
        <time>2018-08-26T11:52:37Z</time>
      </trkpt>
      <trkpt lat="47.45184" lon="6.00763">
        <ele>366</ele>
        <time>2018-08-26T11:53:07Z</time>
      </trkpt>
      <trkpt lat="47.45217" lon="6.00765">
        <ele>366</ele>
        <time>2018-08-26T11:53:37Z</time>
      </trkpt>
      <trkpt lat="47.45253" lon="6.00738">
        <ele>371</ele>
        <time>2018-08-26T11:54:07Z</time>
      </trkpt>
      <trkpt lat="47.45284" lon="6.00717">
        <ele>371</ele>
        <time>2018-08-26T11:54:37Z</time>
      </trkpt>
      <trkpt lat="47.45316" lon="6.00689">
        <ele>372</ele>
        <time>2018-08-26T11:55:07Z</time>
      </trkpt>
      <trkpt lat="47.45352" lon="6.00661">
        <ele>373</ele>
        <time>2018-08-26T11:55:37Z</time>
      </trkpt>
      <trkpt lat="47.45386" lon="6.00636">
        <ele>372</ele>
        <time>2018-08-26T11:56:07Z</time>
      </trkpt>
      <trkpt lat="47.45419" lon="6.00609">
        <ele>366</ele>
        <time>2018-08-26T11:56:37Z</time>
      </trkpt>
      <trkpt lat="47.45444" lon="6.00588">
        <ele>365</ele>
        <time>2018-08-26T11:57:07Z</time>
      </trkpt>
      <trkpt lat="47.4547" lon="6.00558">
        <ele>366</ele>
        <time>2018-08-26T11:57:37Z</time>
      </trkpt>
      <trkpt lat="47.45502" lon="6.00523">
        <ele>356</ele>
        <time>2018-08-26T11:58:07Z</time>
      </trkpt>
      <trkpt lat="47.45539" lon="6.00507">
        <ele>350</ele>
        <time>2018-08-26T11:58:37Z</time>
      </trkpt>
      <trkpt lat="47.45573" lon="6.00506">
        <ele>341</ele>
        <time>2018-08-26T11:59:07Z</time>
      </trkpt>
      <trkpt lat="47.45596" lon="6.00526">
        <ele>333</ele>
        <time>2018-08-26T11:59:37Z</time>
      </trkpt>
      <trkpt lat="47.45585" lon="6.00548">
        <ele>332</ele>
        <time>2018-08-26T12:00:07Z</time>
      </trkpt>
      <trkpt lat="47.45569" lon="6.0059">
        <ele>334</ele>
        <time>2018-08-26T12:00:37Z</time>
      </trkpt>
      <trkpt lat="47.45551" lon="6.00635">
        <ele>337</ele>
        <time>2018-08-26T12:01:07Z</time>
      </trkpt>
      <trkpt lat="47.45534" lon="6.00688">
        <ele>331</ele>
        <time>2018-08-26T12:01:37Z</time>
      </trkpt>
      <trkpt lat="47.45514" lon="6.00739">
        <ele>330</ele>
        <time>2018-08-26T12:02:07Z</time>
      </trkpt>
      <trkpt lat="47.45496" lon="6.00787">
        <ele>330</ele>
        <time>2018-08-26T12:02:37Z</time>
      </trkpt>
      <trkpt lat="47.45481" lon="6.0084">
        <ele>320</ele>
        <time>2018-08-26T12:03:07Z</time>
      </trkpt>
      <trkpt lat="47.45479" lon="6.0089">
        <ele>320</ele>
        <time>2018-08-26T12:03:37Z</time>
      </trkpt>
      <trkpt lat="47.45495" lon="6.00948">
        <ele>314</ele>
        <time>2018-08-26T12:04:07Z</time>
      </trkpt>
      <trkpt lat="47.45525" lon="6.00989">
        <ele>309</ele>
        <time>2018-08-26T12:04:37Z</time>
      </trkpt>
      <trkpt lat="47.45558" lon="6.01018">
        <ele>305</ele>
        <time>2018-08-26T12:05:07Z</time>
      </trkpt>
      <trkpt lat="47.45592" lon="6.01042">
        <ele>302</ele>
        <time>2018-08-26T12:05:37Z</time>
      </trkpt>
      <trkpt lat="47.45625" lon="6.01071">
        <ele>301</ele>
        <time>2018-08-26T12:06:07Z</time>
      </trkpt>
      <trkpt lat="47.45659" lon="6.01101">
        <ele>300</ele>
        <time>2018-08-26T12:06:37Z</time>
      </trkpt>
      <trkpt lat="47.45686" lon="6.01142">
        <ele>299</ele>
        <time>2018-08-26T12:07:07Z</time>
      </trkpt>
      <trkpt lat="47.45702" lon="6.01185">
        <ele>298</ele>
        <time>2018-08-26T12:07:37Z</time>
      </trkpt>
      <trkpt lat="47.45716" lon="6.01207">
        <ele>298</ele>
        <time>2018-08-26T12:08:07Z</time>
      </trkpt>
      <trkpt lat="47.45717" lon="6.01203">
        <ele>298</ele>
        <time>2018-08-26T12:08:37Z</time>
      </trkpt>
      <trkpt lat="47.45718" lon="6.01202">
        <ele>298</ele>
        <time>2018-08-26T12:09:07Z</time>
      </trkpt>
      <trkpt lat="47.45714" lon="6.012">
        <ele>298</ele>
        <time>2018-08-26T12:09:37Z</time>
      </trkpt>
      <trkpt lat="47.45715" lon="6.01202">
        <ele>298</ele>
        <time>2018-08-26T12:10:07Z</time>
      </trkpt>
      <trkpt lat="47.45713" lon="6.0118">
        <ele>298</ele>
        <time>2018-08-26T12:10:37Z</time>
      </trkpt>
      <trkpt lat="47.4572" lon="6.01143">
        <ele>299</ele>
        <time>2018-08-26T12:11:07Z</time>
      </trkpt>
      <trkpt lat="47.4575" lon="6.01171">
        <ele>299</ele>
        <time>2018-08-26T12:11:37Z</time>
      </trkpt>
      <trkpt lat="47.45777" lon="6.012">
        <ele>300</ele>
        <time>2018-08-26T12:12:07Z</time>
      </trkpt>
      <trkpt lat="47.45802" lon="6.01234">
        <ele>301</ele>
        <time>2018-08-26T12:12:37Z</time>
      </trkpt>
      <trkpt lat="47.45823" lon="6.01259">
        <ele>302</ele>
        <time>2018-08-26T12:13:07Z</time>
      </trkpt>
      <trkpt lat="47.4585" lon="6.01294">
        <ele>304</ele>
        <time>2018-08-26T12:13:37Z</time>
      </trkpt>
      <trkpt lat="47.45882" lon="6.01329">
        <ele>305</ele>
        <time>2018-08-26T12:14:07Z</time>
      </trkpt>
      <trkpt lat="47.4591" lon="6.01365">
        <ele>305</ele>
        <time>2018-08-26T12:14:37Z</time>
      </trkpt>
      <trkpt lat="47.45942" lon="6.01395">
        <ele>308</ele>
        <time>2018-08-26T12:15:07Z</time>
      </trkpt>
      <trkpt lat="47.45975" lon="6.01423">
        <ele>309</ele>
        <time>2018-08-26T12:15:37Z</time>
      </trkpt>
      <trkpt lat="47.46009" lon="6.01445">
        <ele>309</ele>
        <time>2018-08-26T12:16:07Z</time>
      </trkpt>
      <trkpt lat="47.46043" lon="6.01463">
        <ele>309</ele>
        <time>2018-08-26T12:16:37Z</time>
      </trkpt>
      <trkpt lat="47.46077" lon="6.01483">
        <ele>308</ele>
        <time>2018-08-26T12:17:07Z</time>
      </trkpt>
      <trkpt lat="47.46102" lon="6.01519">
        <ele>305</ele>
        <time>2018-08-26T12:17:37Z</time>
      </trkpt>
      <trkpt lat="47.46127" lon="6.01554">
        <ele>304</ele>
        <time>2018-08-26T12:18:07Z</time>
      </trkpt>
      <trkpt lat="47.46154" lon="6.01589">
        <ele>301</ele>
        <time>2018-08-26T12:18:37Z</time>
      </trkpt>
      <trkpt lat="47.46185" lon="6.016">
        <ele>301</ele>
        <time>2018-08-26T12:19:07Z</time>
      </trkpt>
      <trkpt lat="47.46212" lon="6.01571">
        <ele>302</ele>
        <time>2018-08-26T12:19:37Z</time>
      </trkpt>
      <trkpt lat="47.46241" lon="6.01575">
        <ele>301</ele>
        <time>2018-08-26T12:20:07Z</time>
      </trkpt>
      <trkpt lat="47.46262" lon="6.0162">
        <ele>301</ele>
        <time>2018-08-26T12:20:37Z</time>
      </trkpt>
      <trkpt lat="47.46277" lon="6.01675">
        <ele>297</ele>
        <time>2018-08-26T12:21:07Z</time>
      </trkpt>
      <trkpt lat="47.4631" lon="6.01703">
        <ele>296</ele>
        <time>2018-08-26T12:21:37Z</time>
      </trkpt>
      <trkpt lat="47.46346" lon="6.01732">
        <ele>294</ele>
        <time>2018-08-26T12:22:07Z</time>
      </trkpt>
      <trkpt lat="47.46382" lon="6.01762">
        <ele>291</ele>
        <time>2018-08-26T12:22:37Z</time>
      </trkpt>
      <trkpt lat="47.46416" lon="6.01789">
        <ele>290</ele>
        <time>2018-08-26T12:23:07Z</time>
      </trkpt>
      <trkpt lat="47.46447" lon="6.01816">
        <ele>292</ele>
        <time>2018-08-26T12:23:37Z</time>
      </trkpt>
      <trkpt lat="47.46482" lon="6.01845">
        <ele>290</ele>
        <time>2018-08-26T12:24:07Z</time>
      </trkpt>
      <trkpt lat="47.46515" lon="6.01874">
        <ele>292</ele>
        <time>2018-08-26T12:24:37Z</time>
      </trkpt>
      <trkpt lat="47.46551" lon="6.01906">
        <ele>292</ele>
        <time>2018-08-26T12:25:07Z</time>
      </trkpt>
      <trkpt lat="47.46581" lon="6.01935">
        <ele>288</ele>
        <time>2018-08-26T12:25:37Z</time>
      </trkpt>
      <trkpt lat="47.4661" lon="6.01973">
        <ele>292</ele>
        <time>2018-08-26T12:26:07Z</time>
      </trkpt>
      <trkpt lat="47.46637" lon="6.0201">
        <ele>287</ele>
        <time>2018-08-26T12:26:37Z</time>
      </trkpt>
      <trkpt lat="47.46663" lon="6.02052">
        <ele>285</ele>
        <time>2018-08-26T12:27:07Z</time>
      </trkpt>
      <trkpt lat="47.46693" lon="6.02084">
        <ele>284</ele>
        <time>2018-08-26T12:27:37Z</time>
      </trkpt>
      <trkpt lat="47.46696" lon="6.02131">
        <ele>283</ele>
        <time>2018-08-26T12:28:07Z</time>
      </trkpt>
      <trkpt lat="47.46681" lon="6.02174">
        <ele>281</ele>
        <time>2018-08-26T12:28:37Z</time>
      </trkpt>
      <trkpt lat="47.46664" lon="6.0222">
        <ele>282</ele>
        <time>2018-08-26T12:29:07Z</time>
      </trkpt>
      <trkpt lat="47.46646" lon="6.02267">
        <ele>282</ele>
        <time>2018-08-26T12:29:37Z</time>
      </trkpt>
      <trkpt lat="47.46632" lon="6.02315">
        <ele>282</ele>
        <time>2018-08-26T12:30:07Z</time>
      </trkpt>
      <trkpt lat="47.46648" lon="6.02361">
        <ele>280</ele>
        <time>2018-08-26T12:30:37Z</time>
      </trkpt>
      <trkpt lat="47.46669" lon="6.02412">
        <ele>276</ele>
        <time>2018-08-26T12:31:07Z</time>
      </trkpt>
      <trkpt lat="47.46689" lon="6.02459">
        <ele>275</ele>
        <time>2018-08-26T12:31:37Z</time>
      </trkpt>
      <trkpt lat="47.46713" lon="6.02501">
        <ele>274</ele>
        <time>2018-08-26T12:32:07Z</time>
      </trkpt>
      <trkpt lat="47.46751" lon="6.02509">
        <ele>273</ele>
        <time>2018-08-26T12:32:37Z</time>
      </trkpt>
      <trkpt lat="47.46786" lon="6.02522">
        <ele>273</ele>
        <time>2018-08-26T12:33:07Z</time>
      </trkpt>
      <trkpt lat="47.46822" lon="6.02527">
        <ele>273</ele>
        <time>2018-08-26T12:33:37Z</time>
      </trkpt>
      <trkpt lat="47.4686" lon="6.02532">
        <ele>271</ele>
        <time>2018-08-26T12:34:07Z</time>
      </trkpt>
      <trkpt lat="47.46897" lon="6.02546">
        <ele>271</ele>
        <time>2018-08-26T12:34:37Z</time>
      </trkpt>
      <trkpt lat="47.46931" lon="6.0257">
        <ele>270</ele>
        <time>2018-08-26T12:35:07Z</time>
      </trkpt>
      <trkpt lat="47.46962" lon="6.02601">
        <ele>273</ele>
        <time>2018-08-26T12:35:37Z</time>
      </trkpt>
      <trkpt lat="47.46993" lon="6.02631">
        <ele>274</ele>
        <time>2018-08-26T12:36:07Z</time>
      </trkpt>
      <trkpt lat="47.46995" lon="6.02633">
        <ele>274</ele>
        <time>2018-08-26T12:36:37Z</time>
      </trkpt>
      <trkpt lat="47.47014" lon="6.02648">
        <ele>276</ele>
        <time>2018-08-26T12:37:07Z</time>
      </trkpt>
      <trkpt lat="47.47035" lon="6.02668">
        <ele>278</ele>
        <time>2018-08-26T12:37:37Z</time>
      </trkpt>
      <trkpt lat="47.47061" lon="6.02686">
        <ele>279</ele>
        <time>2018-08-26T12:38:07Z</time>
      </trkpt>
      <trkpt lat="47.47091" lon="6.02707">
        <ele>281</ele>
        <time>2018-08-26T12:38:37Z</time>
      </trkpt>
      <trkpt lat="47.47122" lon="6.02726">
        <ele>282</ele>
        <time>2018-08-26T12:39:07Z</time>
      </trkpt>
      <trkpt lat="47.47151" lon="6.02748">
        <ele>282</ele>
        <time>2018-08-26T12:39:37Z</time>
      </trkpt>
      <trkpt lat="47.47179" lon="6.02777">
        <ele>282</ele>
        <time>2018-08-26T12:40:07Z</time>
      </trkpt>
      <trkpt lat="47.47202" lon="6.02801">
        <ele>282</ele>
        <time>2018-08-26T12:40:37Z</time>
      </trkpt>
      <trkpt lat="47.47205" lon="6.02812">
        <ele>282</ele>
        <time>2018-08-26T12:41:07Z</time>
      </trkpt>
      <trkpt lat="47.47235" lon="6.028">
        <ele>280</ele>
        <time>2018-08-26T12:41:37Z</time>
      </trkpt>
      <trkpt lat="47.47253" lon="6.02782">
        <ele>276</ele>
        <time>2018-08-26T12:42:07Z</time>
      </trkpt>
      <trkpt lat="47.47281" lon="6.02766">
        <ele>276</ele>
        <time>2018-08-26T12:42:37Z</time>
      </trkpt>
      <trkpt lat="47.47294" lon="6.02761">
        <ele>275</ele>
        <time>2018-08-26T12:43:07Z</time>
      </trkpt>
      <trkpt lat="47.47318" lon="6.02753">
        <ele>274</ele>
        <time>2018-08-26T12:43:37Z</time>
      </trkpt>
      <trkpt lat="47.47347" lon="6.02747">
        <ele>271</ele>
        <time>2018-08-26T12:44:07Z</time>
      </trkpt>
      <trkpt lat="47.47384" lon="6.02745">
        <ele>269</ele>
        <time>2018-08-26T12:44:37Z</time>
      </trkpt>
      <trkpt lat="47.47401" lon="6.0273">
        <ele>268</ele>
        <time>2018-08-26T12:45:07Z</time>
      </trkpt>
      <trkpt lat="47.47415" lon="6.02702">
        <ele>267</ele>
        <time>2018-08-26T12:45:37Z</time>
      </trkpt>
      <trkpt lat="47.47421" lon="6.02711">
        <ele>267</ele>
        <time>2018-08-26T12:46:07Z</time>
      </trkpt>
      <trkpt lat="47.47417" lon="6.02704">
        <ele>267</ele>
        <time>2018-08-26T12:46:37Z</time>
      </trkpt>
      <trkpt lat="47.47422" lon="6.02703">
        <ele>267</ele>
        <time>2018-08-26T12:47:07Z</time>
      </trkpt>
      <trkpt lat="47.4742" lon="6.02703">
        <ele>267</ele>
        <time>2018-08-26T12:47:37Z</time>
      </trkpt>
      <trkpt lat="47.47422" lon="6.02694">
        <ele>267</ele>
        <time>2018-08-26T12:48:07Z</time>
      </trkpt>
      <trkpt lat="47.47432" lon="6.02677">
        <ele>266</ele>
        <time>2018-08-26T12:48:37Z</time>
      </trkpt>
      <trkpt lat="47.47459" lon="6.02661">
        <ele>267</ele>
        <time>2018-08-26T12:49:07Z</time>
      </trkpt>
      <trkpt lat="47.47481" lon="6.02644">
        <ele>268</ele>
        <time>2018-08-26T12:49:37Z</time>
      </trkpt>
      <trkpt lat="47.47498" lon="6.02636">
        <ele>268</ele>
        <time>2018-08-26T12:50:07Z</time>
      </trkpt>
      <trkpt lat="47.47505" lon="6.0265">
        <ele>271</ele>
        <time>2018-08-26T12:50:37Z</time>
      </trkpt>
      <trkpt lat="47.4751" lon="6.02655">
        <ele>271</ele>
        <time>2018-08-26T12:51:07Z</time>
      </trkpt>
      <trkpt lat="47.47504" lon="6.02653">
        <ele>271</ele>
        <time>2018-08-26T12:51:37Z</time>
      </trkpt>
      <trkpt lat="47.47506" lon="6.02662">
        <ele>270</ele>
        <time>2018-08-26T12:52:07Z</time>
      </trkpt>
      <trkpt lat="47.47507" lon="6.02673">
        <ele>271</ele>
        <time>2018-08-26T12:52:37Z</time>
      </trkpt>
      <trkpt lat="47.4751" lon="6.02654">
        <ele>271</ele>
        <time>2018-08-26T12:53:07Z</time>
      </trkpt>
      <trkpt lat="47.4751" lon="6.02655">
        <ele>271</ele>
        <time>2018-08-26T12:53:37Z</time>
      </trkpt>
      <trkpt lat="47.47503" lon="6.02645">
        <ele>271</ele>
        <time>2018-08-26T12:54:07Z</time>
      </trkpt>
      <trkpt lat="47.47517" lon="6.02618">
        <ele>270</ele>
        <time>2018-08-26T12:54:37Z</time>
      </trkpt>
      <trkpt lat="47.4753" lon="6.02596">
        <ele>270</ele>
        <time>2018-08-26T12:55:07Z</time>
      </trkpt>
      <trkpt lat="47.47537" lon="6.02582">
        <ele>267</ele>
        <time>2018-08-26T12:55:37Z</time>
      </trkpt>
      <trkpt lat="47.47542" lon="6.02579">
        <ele>267</ele>
        <time>2018-08-26T12:56:07Z</time>
      </trkpt>
      <trkpt lat="47.47545" lon="6.0258">
        <ele>267</ele>
        <time>2018-08-26T12:56:37Z</time>
      </trkpt>
      <trkpt lat="47.47541" lon="6.02575">
        <ele>267</ele>
        <time>2018-08-26T12:57:07Z</time>
      </trkpt>
      <trkpt lat="47.47553" lon="6.02564">
        <ele>267</ele>
        <time>2018-08-26T12:57:37Z</time>
      </trkpt>
      <trkpt lat="47.47563" lon="6.02548">
        <ele>267</ele>
        <time>2018-08-26T12:58:07Z</time>
      </trkpt>
      <trkpt lat="47.47564" lon="6.02548">
        <ele>267</ele>
        <time>2018-08-26T12:58:37Z</time>
      </trkpt>
      <trkpt lat="47.4757" lon="6.02547">
        <ele>267</ele>
        <time>2018-08-26T12:59:07Z</time>
      </trkpt>
      <trkpt lat="47.4758" lon="6.02532">
        <ele>266</ele>
        <time>2018-08-26T12:59:37Z</time>
      </trkpt>
      <trkpt lat="47.4758" lon="6.02531">
        <ele>266</ele>
        <time>2018-08-26T13:00:07Z</time>
      </trkpt>
      <trkpt lat="47.47553" lon="6.02522">
        <ele>266</ele>
        <time>2018-08-26T13:00:37Z</time>
      </trkpt>
      <trkpt lat="47.47551" lon="6.02518">
        <ele>266</ele>
        <time>2018-08-26T13:01:07Z</time>
      </trkpt>
      <trkpt lat="47.47549" lon="6.0251">
        <ele>266</ele>
        <time>2018-08-26T13:01:37Z</time>
      </trkpt>
      <trkpt lat="47.47556" lon="6.02489">
        <ele>262</ele>
        <time>2018-08-26T13:02:07Z</time>
      </trkpt>
      <trkpt lat="47.47558" lon="6.02473">
        <ele>262</ele>
        <time>2018-08-26T13:02:37Z</time>
      </trkpt>
      <trkpt lat="47.47557" lon="6.02476">
        <ele>262</ele>
        <time>2018-08-26T13:03:07Z</time>
      </trkpt>
      <trkpt lat="47.47539" lon="6.02474">
        <ele>262</ele>
        <time>2018-08-26T13:03:37Z</time>
      </trkpt>
      <trkpt lat="47.4755" lon="6.02467">
        <ele>261</ele>
        <time>2018-08-26T13:04:07Z</time>
      </trkpt>
      <trkpt lat="47.4755" lon="6.02471">
        <ele>262</ele>
        <time>2018-08-26T13:04:37Z</time>
      </trkpt>
      <trkpt lat="47.47548" lon="6.02473">
        <ele>262</ele>
        <time>2018-08-26T13:05:07Z</time>
      </trkpt>
      <trkpt lat="47.47544" lon="6.02482">
        <ele>262</ele>
        <time>2018-08-26T13:05:37Z</time>
      </trkpt>
      <trkpt lat="47.47552" lon="6.02479">
        <ele>262</ele>
        <time>2018-08-26T13:06:07Z</time>
      </trkpt>
      <trkpt lat="47.4755" lon="6.02463">
        <ele>261</ele>
        <time>2018-08-26T13:06:37Z</time>
      </trkpt>
      <trkpt lat="47.47551" lon="6.0246">
        <ele>261</ele>
        <time>2018-08-26T13:07:07Z</time>
      </trkpt>
      <trkpt lat="47.47553" lon="6.02457">
        <ele>261</ele>
        <time>2018-08-26T13:07:37Z</time>
      </trkpt>
      <trkpt lat="47.47554" lon="6.02458">
        <ele>261</ele>
        <time>2018-08-26T13:08:07Z</time>
      </trkpt>
      <trkpt lat="47.47553" lon="6.02459">
        <ele>261</ele>
        <time>2018-08-26T13:08:37Z</time>
      </trkpt>
      <trkpt lat="47.47554" lon="6.02463">
        <ele>261</ele>
        <time>2018-08-26T13:08:59Z</time>
      </trkpt>
      <trkpt lat="47.47554" lon="6.0246">
        <ele>261</ele>
        <time>2018-08-26T13:16:31Z</time>
      </trkpt>
      <trkpt lat="47.47552" lon="6.02481">
        <ele>262</ele>
        <time>2018-08-26T13:17:01Z</time>
      </trkpt>
      <trkpt lat="47.47554" lon="6.02475">
        <ele>262</ele>
        <time>2018-08-26T13:17:31Z</time>
      </trkpt>
      <trkpt lat="47.47552" lon="6.02468">
        <ele>261</ele>
        <time>2018-08-26T13:18:01Z</time>
      </trkpt>
      <trkpt lat="47.47553" lon="6.0247">
        <ele>261</ele>
        <time>2018-08-26T13:18:31Z</time>
      </trkpt>
      <trkpt lat="47.47533" lon="6.02456">
        <ele>261</ele>
        <time>2018-08-26T13:19:01Z</time>
      </trkpt>
      <trkpt lat="47.4751" lon="6.02449">
        <ele>261</ele>
        <time>2018-08-26T13:19:31Z</time>
      </trkpt>
      <trkpt lat="47.47492" lon="6.02457">
        <ele>263</ele>
        <time>2018-08-26T13:20:01Z</time>
      </trkpt>
      <trkpt lat="47.47466" lon="6.02447">
        <ele>263</ele>
        <time>2018-08-26T13:20:31Z</time>
      </trkpt>
      <trkpt lat="47.47444" lon="6.02438">
        <ele>263</ele>
        <time>2018-08-26T13:21:01Z</time>
      </trkpt>
      <trkpt lat="47.47442" lon="6.02439">
        <ele>263</ele>
        <time>2018-08-26T13:21:31Z</time>
      </trkpt>
      <trkpt lat="47.47465" lon="6.02445">
        <ele>263</ele>
        <time>2018-08-26T13:22:01Z</time>
      </trkpt>
      <trkpt lat="47.47492" lon="6.02452">
        <ele>263</ele>
        <time>2018-08-26T13:22:31Z</time>
      </trkpt>
      <trkpt lat="47.47503" lon="6.02418">
        <ele>260</ele>
        <time>2018-08-26T13:23:01Z</time>
      </trkpt>
      <trkpt lat="47.47503" lon="6.0241">
        <ele>261</ele>
        <time>2018-08-26T13:23:31Z</time>
      </trkpt>
      <trkpt lat="47.47486" lon="6.0238">
        <ele>265</ele>
        <time>2018-08-26T13:24:01Z</time>
      </trkpt>
      <trkpt lat="47.47476" lon="6.02384">
        <ele>265</ele>
        <time>2018-08-26T13:24:31Z</time>
      </trkpt>
      <trkpt lat="47.47462" lon="6.02384">
        <ele>265</ele>
        <time>2018-08-26T13:25:01Z</time>
      </trkpt>
      <trkpt lat="47.47441" lon="6.02363">
        <ele>266</ele>
        <time>2018-08-26T13:25:31Z</time>
      </trkpt>
      <trkpt lat="47.47431" lon="6.0234">
        <ele>268</ele>
        <time>2018-08-26T13:26:01Z</time>
      </trkpt>
      <trkpt lat="47.47423" lon="6.02313">
        <ele>271</ele>
        <time>2018-08-26T13:26:31Z</time>
      </trkpt>
      <trkpt lat="47.47422" lon="6.02313">
        <ele>271</ele>
        <time>2018-08-26T13:27:01Z</time>
      </trkpt>
      <trkpt lat="47.4741" lon="6.02291">
        <ele>271</ele>
        <time>2018-08-26T13:27:31Z</time>
      </trkpt>
      <trkpt lat="47.47399" lon="6.02254">
        <ele>273</ele>
        <time>2018-08-26T13:28:01Z</time>
      </trkpt>
      <trkpt lat="47.4739" lon="6.02229">
        <ele>275</ele>
        <time>2018-08-26T13:28:31Z</time>
      </trkpt>
      <trkpt lat="47.4738" lon="6.02207">
        <ele>275</ele>
        <time>2018-08-26T13:29:01Z</time>
      </trkpt>
      <trkpt lat="47.47358" lon="6.02187">
        <ele>275</ele>
        <time>2018-08-26T13:29:31Z</time>
      </trkpt>
      <trkpt lat="47.47329" lon="6.0218">
        <ele>275</ele>
        <time>2018-08-26T13:30:01Z</time>
      </trkpt>
      <trkpt lat="47.47312" lon="6.02152">
        <ele>278</ele>
        <time>2018-08-26T13:30:31Z</time>
      </trkpt>
      <trkpt lat="47.47295" lon="6.02115">
        <ele>280</ele>
        <time>2018-08-26T13:31:01Z</time>
      </trkpt>
      <trkpt lat="47.47282" lon="6.02081">
        <ele>288</ele>
        <time>2018-08-26T13:31:31Z</time>
      </trkpt>
      <trkpt lat="47.47294" lon="6.0204">
        <ele>290</ele>
        <time>2018-08-26T13:32:01Z</time>
      </trkpt>
      <trkpt lat="47.4729" lon="6.02005">
        <ele>293</ele>
        <time>2018-08-26T13:32:31Z</time>
      </trkpt>
      <trkpt lat="47.47267" lon="6.01989">
        <ele>302</ele>
        <time>2018-08-26T13:33:01Z</time>
      </trkpt>
      <trkpt lat="47.47249" lon="6.01965">
        <ele>311</ele>
        <time>2018-08-26T13:33:31Z</time>
      </trkpt>
      <trkpt lat="47.47235" lon="6.01937">
        <ele>314</ele>
        <time>2018-08-26T13:34:01Z</time>
      </trkpt>
      <trkpt lat="47.47218" lon="6.01913">
        <ele>320</ele>
        <time>2018-08-26T13:34:31Z</time>
      </trkpt>
      <trkpt lat="47.47212" lon="6.01874">
        <ele>322</ele>
        <time>2018-08-26T13:35:01Z</time>
      </trkpt>
      <trkpt lat="47.47204" lon="6.01842">
        <ele>325</ele>
        <time>2018-08-26T13:35:31Z</time>
      </trkpt>
      <trkpt lat="47.47196" lon="6.01793">
        <ele>330</ele>
        <time>2018-08-26T13:36:01Z</time>
      </trkpt>
      <trkpt lat="47.4718" lon="6.01757">
        <ele>337</ele>
        <time>2018-08-26T13:36:31Z</time>
      </trkpt>
      <trkpt lat="47.4717" lon="6.01715">
        <ele>338</ele>
        <time>2018-08-26T13:37:01Z</time>
      </trkpt>
      <trkpt lat="47.47156" lon="6.01673">
        <ele>348</ele>
        <time>2018-08-26T13:37:31Z</time>
      </trkpt>
      <trkpt lat="47.47142" lon="6.01634">
        <ele>349</ele>
        <time>2018-08-26T13:38:01Z</time>
      </trkpt>
      <trkpt lat="47.47122" lon="6.01634">
        <ele>350</ele>
        <time>2018-08-26T13:38:31Z</time>
      </trkpt>
      <trkpt lat="47.47115" lon="6.01679">
        <ele>351</ele>
        <time>2018-08-26T13:39:01Z</time>
      </trkpt>
      <trkpt lat="47.47114" lon="6.01679">
        <ele>351</ele>
        <time>2018-08-26T13:39:31Z</time>
      </trkpt>
      <trkpt lat="47.47117" lon="6.01683">
        <ele>351</ele>
        <time>2018-08-26T13:40:01Z</time>
      </trkpt>
      <trkpt lat="47.47111" lon="6.01678">
        <ele>351</ele>
        <time>2018-08-26T13:40:31Z</time>
      </trkpt>
      <trkpt lat="47.47109" lon="6.0168">
        <ele>352</ele>
        <time>2018-08-26T13:41:01Z</time>
      </trkpt>
      <trkpt lat="47.4711" lon="6.01686">
        <ele>351</ele>
        <time>2018-08-26T13:41:31Z</time>
      </trkpt>
      <trkpt lat="47.47107" lon="6.01684">
        <ele>352</ele>
        <time>2018-08-26T13:42:01Z</time>
      </trkpt>
      <trkpt lat="47.47092" lon="6.01692">
        <ele>352</ele>
        <time>2018-08-26T13:42:31Z</time>
      </trkpt>
      <trkpt lat="47.47061" lon="6.01686">
        <ele>356</ele>
        <time>2018-08-26T13:43:01Z</time>
      </trkpt>
      <trkpt lat="47.47044" lon="6.0166">
        <ele>358</ele>
        <time>2018-08-26T13:43:31Z</time>
      </trkpt>
      <trkpt lat="47.47046" lon="6.01664">
        <ele>358</ele>
        <time>2018-08-26T13:44:01Z</time>
      </trkpt>
      <trkpt lat="47.47046" lon="6.01629">
        <ele>358</ele>
        <time>2018-08-26T13:44:31Z</time>
      </trkpt>
      <trkpt lat="47.4704" lon="6.01584">
        <ele>358</ele>
        <time>2018-08-26T13:45:01Z</time>
      </trkpt>
      <trkpt lat="47.47039" lon="6.01534">
        <ele>358</ele>
        <time>2018-08-26T13:45:31Z</time>
      </trkpt>
      <trkpt lat="47.47039" lon="6.01488">
        <ele>358</ele>
        <time>2018-08-26T13:46:01Z</time>
      </trkpt>
      <trkpt lat="47.47039" lon="6.01442">
        <ele>358</ele>
        <time>2018-08-26T13:46:31Z</time>
      </trkpt>
      <trkpt lat="47.47042" lon="6.01388">
        <ele>358</ele>
        <time>2018-08-26T13:47:01Z</time>
      </trkpt>
      <trkpt lat="47.47048" lon="6.01334">
        <ele>358</ele>
        <time>2018-08-26T13:47:31Z</time>
      </trkpt>
      <trkpt lat="47.47058" lon="6.01285">
        <ele>359</ele>
        <time>2018-08-26T13:48:01Z</time>
      </trkpt>
      <trkpt lat="47.47061" lon="6.01239">
        <ele>362</ele>
        <time>2018-08-26T13:48:31Z</time>
      </trkpt>
      <trkpt lat="47.47073" lon="6.01189">
        <ele>364</ele>
        <time>2018-08-26T13:49:01Z</time>
      </trkpt>
      <trkpt lat="47.47062" lon="6.01152">
        <ele>368</ele>
        <time>2018-08-26T13:49:31Z</time>
      </trkpt>
      <trkpt lat="47.47047" lon="6.01112">
        <ele>370</ele>
        <time>2018-08-26T13:50:01Z</time>
      </trkpt>
      <trkpt lat="47.47021" lon="6.01065">
        <ele>373</ele>
        <time>2018-08-26T13:50:31Z</time>
      </trkpt>
      <trkpt lat="47.47008" lon="6.01033">
        <ele>373</ele>
        <time>2018-08-26T13:51:01Z</time>
      </trkpt>
      <trkpt lat="47.46987" lon="6.00989">
        <ele>376</ele>
        <time>2018-08-26T13:51:31Z</time>
      </trkpt>
      <trkpt lat="47.46971" lon="6.00964">
        <ele>376</ele>
        <time>2018-08-26T13:52:01Z</time>
      </trkpt>
      <trkpt lat="47.46954" lon="6.00921">
        <ele>377</ele>
        <time>2018-08-26T13:52:31Z</time>
      </trkpt>
      <trkpt lat="47.46944" lon="6.00894">
        <ele>375</ele>
        <time>2018-08-26T13:53:01Z</time>
      </trkpt>
      <trkpt lat="47.46924" lon="6.00847">
        <ele>375</ele>
        <time>2018-08-26T13:53:31Z</time>
      </trkpt>
      <trkpt lat="47.46905" lon="6.00806">
        <ele>375</ele>
        <time>2018-08-26T13:54:01Z</time>
      </trkpt>
      <trkpt lat="47.46916" lon="6.00778">
        <ele>374</ele>
        <time>2018-08-26T13:54:31Z</time>
      </trkpt>
      <trkpt lat="47.46943" lon="6.00753">
        <ele>371</ele>
        <time>2018-08-26T13:55:01Z</time>
      </trkpt>
      <trkpt lat="47.46971" lon="6.0073">
        <ele>368</ele>
        <time>2018-08-26T13:55:31Z</time>
      </trkpt>
      <trkpt lat="47.46995" lon="6.00711">
        <ele>368</ele>
        <time>2018-08-26T13:56:01Z</time>
      </trkpt>
      <trkpt lat="47.47018" lon="6.00692">
        <ele>364</ele>
        <time>2018-08-26T13:56:31Z</time>
      </trkpt>
      <trkpt lat="47.47039" lon="6.00676">
        <ele>363</ele>
        <time>2018-08-26T13:57:01Z</time>
      </trkpt>
      <trkpt lat="47.47065" lon="6.00654">
        <ele>359</ele>
        <time>2018-08-26T13:57:31Z</time>
      </trkpt>
      <trkpt lat="47.47092" lon="6.00631">
        <ele>355</ele>
        <time>2018-08-26T13:58:01Z</time>
      </trkpt>
      <trkpt lat="47.47096" lon="6.00597">
        <ele>355</ele>
        <time>2018-08-26T13:58:31Z</time>
      </trkpt>
      <trkpt lat="47.47075" lon="6.00553">
        <ele>353</ele>
        <time>2018-08-26T13:59:01Z</time>
      </trkpt>
      <trkpt lat="47.47047" lon="6.00523">
        <ele>353</ele>
        <time>2018-08-26T13:59:31Z</time>
      </trkpt>
      <trkpt lat="47.47017" lon="6.00501">
        <ele>352</ele>
        <time>2018-08-26T14:00:01Z</time>
      </trkpt>
      <trkpt lat="47.46987" lon="6.00482">
        <ele>347</ele>
        <time>2018-08-26T14:00:31Z</time>
      </trkpt>
      <trkpt lat="47.46958" lon="6.00461">
        <ele>345</ele>
        <time>2018-08-26T14:01:01Z</time>
      </trkpt>
      <trkpt lat="47.4692" lon="6.00445">
        <ele>344</ele>
        <time>2018-08-26T14:01:31Z</time>
      </trkpt>
      <trkpt lat="47.46886" lon="6.0044">
        <ele>344</ele>
        <time>2018-08-26T14:02:01Z</time>
      </trkpt>
      <trkpt lat="47.4685" lon="6.00433">
        <ele>343</ele>
        <time>2018-08-26T14:02:31Z</time>
      </trkpt>
      <trkpt lat="47.46816" lon="6.00406">
        <ele>337</ele>
        <time>2018-08-26T14:03:01Z</time>
      </trkpt>
      <trkpt lat="47.46786" lon="6.00367">
        <ele>334</ele>
        <time>2018-08-26T14:03:31Z</time>
      </trkpt>
      <trkpt lat="47.4676" lon="6.00339">
        <ele>332</ele>
        <time>2018-08-26T14:04:01Z</time>
      </trkpt>
      <trkpt lat="47.46742" lon="6.00299">
        <ele>332</ele>
        <time>2018-08-26T14:04:31Z</time>
      </trkpt>
      <trkpt lat="47.46741" lon="6.00276">
        <ele>331</ele>
        <time>2018-08-26T14:05:01Z</time>
      </trkpt>
      <trkpt lat="47.46746" lon="6.00237">
        <ele>327</ele>
        <time>2018-08-26T14:05:31Z</time>
      </trkpt>
      <trkpt lat="47.4678" lon="6.00201">
        <ele>320</ele>
        <time>2018-08-26T14:06:01Z</time>
      </trkpt>
      <trkpt lat="47.46807" lon="6.00177">
        <ele>318</ele>
        <time>2018-08-26T14:06:31Z</time>
      </trkpt>
      <trkpt lat="47.46824" lon="6.00153">
        <ele>319</ele>
        <time>2018-08-26T14:07:01Z</time>
      </trkpt>
      <trkpt lat="47.46854" lon="6.00123">
        <ele>309</ele>
        <time>2018-08-26T14:07:31Z</time>
      </trkpt>
      <trkpt lat="47.4688" lon="6.00087">
        <ele>306</ele>
        <time>2018-08-26T14:08:01Z</time>
      </trkpt>
      <trkpt lat="47.46904" lon="6.00054">
        <ele>303</ele>
        <time>2018-08-26T14:08:31Z</time>
      </trkpt>
      <trkpt lat="47.46917" lon="6.00009">
        <ele>295</ele>
        <time>2018-08-26T14:09:01Z</time>
      </trkpt>
      <trkpt lat="47.46927" lon="5.99967">
        <ele>292</ele>
        <time>2018-08-26T14:09:31Z</time>
      </trkpt>
      <trkpt lat="47.46931" lon="5.99927">
        <ele>293</ele>
        <time>2018-08-26T14:10:01Z</time>
      </trkpt>
      <trkpt lat="47.46931" lon="5.99888">
        <ele>291</ele>
        <time>2018-08-26T14:10:31Z</time>
      </trkpt>
      <trkpt lat="47.46939" lon="5.99839">
        <ele>291</ele>
        <time>2018-08-26T14:11:01Z</time>
      </trkpt>
      <trkpt lat="47.46951" lon="5.9979">
        <ele>288</ele>
        <time>2018-08-26T14:11:31Z</time>
      </trkpt>
      <trkpt lat="47.46955" lon="5.99736">
        <ele>286</ele>
        <time>2018-08-26T14:12:01Z</time>
      </trkpt>
      <trkpt lat="47.46961" lon="5.99688">
        <ele>285</ele>
        <time>2018-08-26T14:12:31Z</time>
      </trkpt>
      <trkpt lat="47.46957" lon="5.9964">
        <ele>284</ele>
        <time>2018-08-26T14:13:01Z</time>
      </trkpt>
      <trkpt lat="47.46963" lon="5.99607">
        <ele>285</ele>
        <time>2018-08-26T14:13:31Z</time>
      </trkpt>
      <trkpt lat="47.46966" lon="5.99606">
        <ele>285</ele>
        <time>2018-08-26T14:14:01Z</time>
      </trkpt>
      <trkpt lat="47.46966" lon="5.99608">
        <ele>285</ele>
        <time>2018-08-26T14:14:31Z</time>
      </trkpt>
      <trkpt lat="47.46971" lon="5.99595">
        <ele>285</ele>
        <time>2018-08-26T14:15:01Z</time>
      </trkpt>
      <trkpt lat="47.46988" lon="5.9956">
        <ele>288</ele>
        <time>2018-08-26T14:15:31Z</time>
      </trkpt>
      <trkpt lat="47.47001" lon="5.99535">
        <ele>288</ele>
        <time>2018-08-26T14:16:01Z</time>
      </trkpt>
      <trkpt lat="47.47024" lon="5.99502">
        <ele>289</ele>
        <time>2018-08-26T14:16:31Z</time>
      </trkpt>
      <trkpt lat="47.47044" lon="5.99459">
        <ele>294</ele>
        <time>2018-08-26T14:17:01Z</time>
      </trkpt>
      <trkpt lat="47.47053" lon="5.9941">
        <ele>300</ele>
        <time>2018-08-26T14:17:31Z</time>
      </trkpt>
      <trkpt lat="47.47063" lon="5.99365">
        <ele>302</ele>
        <time>2018-08-26T14:18:01Z</time>
      </trkpt>
      <trkpt lat="47.47072" lon="5.99324">
        <ele>306</ele>
        <time>2018-08-26T14:18:31Z</time>
      </trkpt>
      <trkpt lat="47.47076" lon="5.99279">
        <ele>308</ele>
        <time>2018-08-26T14:19:01Z</time>
      </trkpt>
      <trkpt lat="47.47085" lon="5.9923">
        <ele>311</ele>
        <time>2018-08-26T14:19:31Z</time>
      </trkpt>
      <trkpt lat="47.4709" lon="5.99182">
        <ele>313</ele>
        <time>2018-08-26T14:20:01Z</time>
      </trkpt>
      <trkpt lat="47.47091" lon="5.99163">
        <ele>315</ele>
        <time>2018-08-26T14:20:31Z</time>
      </trkpt>
      <trkpt lat="47.47094" lon="5.99107">
        <ele>319</ele>
        <time>2018-08-26T14:21:01Z</time>
      </trkpt>
      <trkpt lat="47.47102" lon="5.99055">
        <ele>324</ele>
        <time>2018-08-26T14:21:31Z</time>
      </trkpt>
      <trkpt lat="47.47106" lon="5.99006">
        <ele>326</ele>
        <time>2018-08-26T14:22:01Z</time>
      </trkpt>
      <trkpt lat="47.47116" lon="5.98968">
        <ele>330</ele>
        <time>2018-08-26T14:22:31Z</time>
      </trkpt>
      <trkpt lat="47.47122" lon="5.98923">
        <ele>331</ele>
        <time>2018-08-26T14:23:01Z</time>
      </trkpt>
      <trkpt lat="47.47139" lon="5.98883">
        <ele>334</ele>
        <time>2018-08-26T14:23:31Z</time>
      </trkpt>
      <trkpt lat="47.47158" lon="5.98848">
        <ele>334</ele>
        <time>2018-08-26T14:24:01Z</time>
      </trkpt>
      <trkpt lat="47.4718" lon="5.98809">
        <ele>335</ele>
        <time>2018-08-26T14:24:31Z</time>
      </trkpt>
      <trkpt lat="47.47198" lon="5.98773">
        <ele>337</ele>
        <time>2018-08-26T14:25:01Z</time>
      </trkpt>
      <trkpt lat="47.47227" lon="5.98741">
        <ele>337</ele>
        <time>2018-08-26T14:25:31Z</time>
      </trkpt>
      <trkpt lat="47.47251" lon="5.98708">
        <ele>335</ele>
        <time>2018-08-26T14:26:01Z</time>
      </trkpt>
      <trkpt lat="47.4728" lon="5.98707">
        <ele>335</ele>
        <time>2018-08-26T14:26:31Z</time>
      </trkpt>
      <trkpt lat="47.47299" lon="5.9874">
        <ele>335</ele>
        <time>2018-08-26T14:27:01Z</time>
      </trkpt>
      <trkpt lat="47.47304" lon="5.98761">
        <ele>336</ele>
        <time>2018-08-26T14:27:27Z</time>
      </trkpt>
    </trkseg>
  </trk>
</gpx>